sensor_id;sensor_type;location;lat;lon;timestamp;P1;durP1;ratioP1;P2;durP2;ratioP2
65230;SDS011;51813;40.666;16.602;2023-03-23T00:01:19;7.82;;;6.00;;
65230;SDS011;51813;40.666;16.602;2023-03-23T00:03:47;9.40;;;6.50;;
65230;SDS011;51813;40.666;16.602;2023-03-23T00:06:14;9.20;;;6.90;;
65230;SDS011;51813;40.666;16.602;2023-03-23T00:08:45;8.00;;;6.28;;
65230;SDS011;51813;40.666;16.602;2023-03-23T00:11:12;7.90;;;6.00;;
65230;SDS011;51813;40.666;16.602;2023-03-23T00:13:43;7.60;;;5.97;;
65230;SDS011;51813;40.666;16.602;2023-03-23T00:16:11;7.45;;;6.15;;
65230;SDS011;51813;40.666;16.602;2023-03-23T00:18:54;7.82;;;5.72;;
65230;SDS011;51813;40.666;16.602;2023-03-23T00:21:24;8.40;;;6.50;;
65230;SDS011;51813;40.666;16.602;2023-03-23T00:23:59;7.95;;;6.20;;
65230;SDS011;51813;40.666;16.602;2023-03-23T00:26:25;7.72;;;6.07;;
65230;SDS011;51813;40.666;16.602;2023-03-23T00:28:53;7.78;;;5.90;;
65230;SDS011;51813;40.666;16.602;2023-03-23T00:31:19;8.38;;;6.28;;
65230;SDS011;51813;40.666;16.602;2023-03-23T00:33:45;7.80;;;6.10;;
65230;SDS011;51813;40.666;16.602;2023-03-23T00:36:11;8.07;;;6.40;;
65230;SDS011;51813;40.666;16.602;2023-03-23T00:38:37;8.52;;;6.35;;
65230;SDS011;51813;40.666;16.602;2023-03-23T00:41:04;9.63;;;6.85;;
65230;SDS011;51813;40.666;16.602;2023-03-23T00:43:31;9.07;;;6.60;;
65230;SDS011;51813;40.666;16.602;2023-03-23T00:46:01;9.45;;;7.22;;
65230;SDS011;51813;40.666;16.602;2023-03-23T00:48:33;9.02;;;7.03;;
65230;SDS011;51813;40.666;16.602;2023-03-23T00:51:00;9.90;;;6.88;;
65230;SDS011;51813;40.666;16.602;2023-03-23T00:53:31;8.85;;;6.50;;
65230;SDS011;51813;40.666;16.602;2023-03-23T00:55:58;8.15;;;6.63;;
65230;SDS011;51813;40.666;16.602;2023-03-23T00:58:23;7.72;;;6.13;;
65230;SDS011;51813;40.666;16.602;2023-03-23T01:00:49;7.72;;;6.05;;
65230;SDS011;51813;40.666;16.602;2023-03-23T01:03:15;7.35;;;6.20;;
65230;SDS011;51813;40.666;16.602;2023-03-23T01:05:43;8.90;;;6.53;;
65230;SDS011;51813;40.666;16.602;2023-03-23T01:08:11;9.15;;;6.43;;
65230;SDS011;51813;40.666;16.602;2023-03-23T01:10:38;9.73;;;6.63;;
65230;SDS011;51813;40.666;16.602;2023-03-23T01:13:05;7.30;;;5.63;;
65230;SDS011;51813;40.666;16.602;2023-03-23T01:15:31;8.32;;;6.25;;
65230;SDS011;51813;40.666;16.602;2023-03-23T01:17:57;8.82;;;6.43;;
65230;SDS011;51813;40.666;16.602;2023-03-23T01:20:23;8.27;;;5.80;;
65230;SDS011;51813;40.666;16.602;2023-03-23T01:22:51;8.18;;;6.10;;
65230;SDS011;51813;40.666;16.602;2023-03-23T01:25:18;7.63;;;6.10;;
65230;SDS011;51813;40.666;16.602;2023-03-23T01:27:43;7.57;;;5.85;;
65230;SDS011;51813;40.666;16.602;2023-03-23T01:30:10;8.13;;;6.13;;
65230;SDS011;51813;40.666;16.602;2023-03-23T01:32:37;7.28;;;5.63;;
65230;SDS011;51813;40.666;16.602;2023-03-23T01:35:03;8.10;;;5.40;;
65230;SDS011;51813;40.666;16.602;2023-03-23T01:37:30;8.63;;;5.95;;
65230;SDS011;51813;40.666;16.602;2023-03-23T01:39:56;7.93;;;5.78;;
65230;SDS011;51813;40.666;16.602;2023-03-23T01:42:25;7.40;;;5.70;;
65230;SDS011;51813;40.666;16.602;2023-03-23T01:45:37;6.43;;;5.20;;
65230;SDS011;51813;40.666;16.602;2023-03-23T01:47:47;7.22;;;5.70;;
65230;SDS011;51813;40.666;16.602;2023-03-23T01:50:17;6.53;;;5.72;;
65230;SDS011;51813;40.666;16.602;2023-03-23T01:52:47;9.05;;;6.45;;
65230;SDS011;51813;40.666;16.602;2023-03-23T01:55:14;7.50;;;5.63;;
65230;SDS011;51813;40.666;16.602;2023-03-23T01:57:40;7.88;;;5.78;;
65230;SDS011;51813;40.666;16.602;2023-03-23T02:00:07;8.35;;;5.72;;
65230;SDS011;51813;40.666;16.602;2023-03-23T02:02:40;7.20;;;5.10;;
65230;SDS011;51813;40.666;16.602;2023-03-23T02:05:13;7.15;;;5.68;;
65230;SDS011;51813;40.666;16.602;2023-03-23T02:07:45;8.05;;;5.70;;
65230;SDS011;51813;40.666;16.602;2023-03-23T02:10:12;7.40;;;5.57;;
65230;SDS011;51813;40.666;16.602;2023-03-23T02:12:38;6.57;;;5.28;;
65230;SDS011;51813;40.666;16.602;2023-03-23T02:15:04;6.72;;;5.28;;
65230;SDS011;51813;40.666;16.602;2023-03-23T02:17:31;6.93;;;5.50;;
65230;SDS011;51813;40.666;16.602;2023-03-23T02:31:47;6.82;;;5.40;;
65230;SDS011;51813;40.666;16.602;2023-03-23T02:34:44;7.35;;;5.78;;
65230;SDS011;51813;40.666;16.602;2023-03-23T02:37:23;7.38;;;5.10;;
65230;SDS011;51813;40.666;16.602;2023-03-23T02:40:12;7.13;;;5.28;;
65230;SDS011;51813;40.666;16.602;2023-03-23T02:42:44;7.30;;;5.38;;
65230;SDS011;51813;40.666;16.602;2023-03-23T02:45:15;6.50;;;5.00;;
65230;SDS011;51813;40.666;16.602;2023-03-23T02:47:42;6.35;;;4.90;;
65230;SDS011;51813;40.666;16.602;2023-03-23T02:50:10;6.88;;;5.35;;
65230;SDS011;51813;40.666;16.602;2023-03-23T02:52:40;6.97;;;5.38;;
65230;SDS011;51813;40.666;16.602;2023-03-23T02:55:07;7.40;;;5.22;;
65230;SDS011;51813;40.666;16.602;2023-03-23T02:57:36;6.88;;;5.35;;
65230;SDS011;51813;40.666;16.602;2023-03-23T03:00:07;6.93;;;5.32;;
65230;SDS011;51813;40.666;16.602;2023-03-23T03:02:38;6.00;;;4.90;;
65230;SDS011;51813;40.666;16.602;2023-03-23T03:07:41;7.80;;;5.22;;
65230;SDS011;51813;40.666;16.602;2023-03-23T03:10:16;8.13;;;5.63;;
65230;SDS011;51813;40.666;16.602;2023-03-23T03:18:18;5.82;;;4.45;;
65230;SDS011;51813;40.666;16.602;2023-03-23T03:20:52;5.97;;;4.80;;
65230;SDS011;51813;40.666;16.602;2023-03-23T03:23:21;6.80;;;5.37;;
65230;SDS011;51813;40.666;16.602;2023-03-23T03:25:49;6.50;;;5.03;;
65230;SDS011;51813;40.666;16.602;2023-03-23T03:28:16;5.55;;;4.40;;
65230;SDS011;51813;40.666;16.602;2023-03-23T03:30:47;6.50;;;5.10;;
65230;SDS011;51813;40.666;16.602;2023-03-23T03:33:16;6.75;;;5.07;;
65230;SDS011;51813;40.666;16.602;2023-03-23T03:35:42;7.00;;;5.30;;
65230;SDS011;51813;40.666;16.602;2023-03-23T03:38:10;6.53;;;4.88;;
65230;SDS011;51813;40.666;16.602;2023-03-23T03:40:36;6.55;;;5.00;;
65230;SDS011;51813;40.666;16.602;2023-03-23T03:43:02;6.85;;;4.82;;
65230;SDS011;51813;40.666;16.602;2023-03-23T03:45:28;6.00;;;4.60;;
65230;SDS011;51813;40.666;16.602;2023-03-23T03:47:54;7.82;;;5.60;;
65230;SDS011;51813;40.666;16.602;2023-03-23T03:50:19;6.90;;;5.28;;
65230;SDS011;51813;40.666;16.602;2023-03-23T03:52:45;6.65;;;4.68;;
65230;SDS011;51813;40.666;16.602;2023-03-23T03:55:11;6.22;;;4.82;;
65230;SDS011;51813;40.666;16.602;2023-03-23T03:57:37;6.93;;;5.05;;
65230;SDS011;51813;40.666;16.602;2023-03-23T04:00:04;6.70;;;5.20;;
65230;SDS011;51813;40.666;16.602;2023-03-23T04:02:43;6.72;;;5.35;;
65230;SDS011;51813;40.666;16.602;2023-03-23T04:05:15;6.65;;;5.20;;
65230;SDS011;51813;40.666;16.602;2023-03-23T04:07:41;5.88;;;4.90;;
65230;SDS011;51813;40.666;16.602;2023-03-23T04:10:08;7.28;;;5.10;;
65230;SDS011;51813;40.666;16.602;2023-03-23T04:12:36;6.68;;;4.78;;
65230;SDS011;51813;40.666;16.602;2023-03-23T04:15:02;8.07;;;5.10;;
65230;SDS011;51813;40.666;16.602;2023-03-23T04:17:28;6.40;;;4.97;;
65230;SDS011;51813;40.666;16.602;2023-03-23T04:19:54;6.85;;;5.20;;
65230;SDS011;51813;40.666;16.602;2023-03-23T04:22:32;7.38;;;5.30;;
65230;SDS011;51813;40.666;16.602;2023-03-23T04:24:58;7.15;;;5.03;;
65230;SDS011;51813;40.666;16.602;2023-03-23T04:27:27;7.25;;;5.05;;
65230;SDS011;51813;40.666;16.602;2023-03-23T04:29:56;6.68;;;4.78;;
65230;SDS011;51813;40.666;16.602;2023-03-23T04:32:27;6.68;;;4.88;;
65230;SDS011;51813;40.666;16.602;2023-03-23T04:34:57;7.37;;;5.07;;
65230;SDS011;51813;40.666;16.602;2023-03-23T04:37:24;6.07;;;4.47;;
65230;SDS011;51813;40.666;16.602;2023-03-23T04:39:54;6.05;;;4.53;;
65230;SDS011;51813;40.666;16.602;2023-03-23T04:42:26;5.97;;;4.55;;
65230;SDS011;51813;40.666;16.602;2023-03-23T04:44:53;5.82;;;4.50;;
65230;SDS011;51813;40.666;16.602;2023-03-23T04:47:19;5.55;;;4.78;;
65230;SDS011;51813;40.666;16.602;2023-03-23T04:49:45;6.60;;;4.40;;
65230;SDS011;51813;40.666;16.602;2023-03-23T04:52:11;6.22;;;4.85;;
65230;SDS011;51813;40.666;16.602;2023-03-23T04:54:36;6.20;;;4.57;;
65230;SDS011;51813;40.666;16.602;2023-03-23T04:57:02;6.38;;;4.80;;
65230;SDS011;51813;40.666;16.602;2023-03-23T04:59:28;6.60;;;4.75;;
65230;SDS011;51813;40.666;16.602;2023-03-23T05:01:55;6.05;;;4.60;;
65230;SDS011;51813;40.666;16.602;2023-03-23T05:04:21;6.38;;;4.78;;
65230;SDS011;51813;40.666;16.602;2023-03-23T05:06:47;6.43;;;4.65;;
65230;SDS011;51813;40.666;16.602;2023-03-23T05:09:13;6.43;;;5.03;;
65230;SDS011;51813;40.666;16.602;2023-03-23T05:11:39;6.45;;;4.70;;
65230;SDS011;51813;40.666;16.602;2023-03-23T05:14:04;7.10;;;5.05;;
65230;SDS011;51813;40.666;16.602;2023-03-23T05:16:30;7.30;;;5.50;;
65230;SDS011;51813;40.666;16.602;2023-03-23T05:18:56;6.28;;;4.88;;
65230;SDS011;51813;40.666;16.602;2023-03-23T05:21:25;8.10;;;6.38;;
65230;SDS011;51813;40.666;16.602;2023-03-23T05:23:51;8.50;;;5.93;;
65230;SDS011;51813;40.666;16.602;2023-03-23T05:26:20;7.32;;;5.78;;
65230;SDS011;51813;40.666;16.602;2023-03-23T05:28:46;8.10;;;5.90;;
65230;SDS011;51813;40.666;16.602;2023-03-23T05:31:14;8.63;;;6.55;;
65230;SDS011;51813;40.666;16.602;2023-03-23T05:33:40;8.65;;;6.22;;
65230;SDS011;51813;40.666;16.602;2023-03-23T05:36:05;8.88;;;6.75;;
65230;SDS011;51813;40.666;16.602;2023-03-23T05:38:35;9.20;;;6.57;;
65230;SDS011;51813;40.666;16.602;2023-03-23T05:41:03;8.10;;;6.20;;
65230;SDS011;51813;40.666;16.602;2023-03-23T05:43:29;7.75;;;5.90;;
65230;SDS011;51813;40.666;16.602;2023-03-23T05:45:55;8.85;;;6.10;;
65230;SDS011;51813;40.666;16.602;2023-03-23T05:48:21;8.68;;;6.13;;
65230;SDS011;51813;40.666;16.602;2023-03-23T05:50:47;8.43;;;5.80;;
65230;SDS011;51813;40.666;16.602;2023-03-23T05:53:12;7.13;;;5.82;;
65230;SDS011;51813;40.666;16.602;2023-03-23T05:55:38;9.15;;;6.68;;
65230;SDS011;51813;40.666;16.602;2023-03-23T05:58:04;8.00;;;6.50;;
65230;SDS011;51813;40.666;16.602;2023-03-23T06:00:30;8.80;;;6.28;;
65230;SDS011;51813;40.666;16.602;2023-03-23T06:02:57;8.18;;;6.32;;
65230;SDS011;51813;40.666;16.602;2023-03-23T06:05:23;8.15;;;6.03;;
65230;SDS011;51813;40.666;16.602;2023-03-23T06:07:50;9.07;;;5.97;;
65230;SDS011;51813;40.666;16.602;2023-03-23T06:10:17;8.40;;;5.78;;
65230;SDS011;51813;40.666;16.602;2023-03-23T06:12:42;9.15;;;6.30;;
65230;SDS011;51813;40.666;16.602;2023-03-23T06:15:08;7.93;;;6.20;;
65230;SDS011;51813;40.666;16.602;2023-03-23T06:17:36;7.70;;;5.60;;
65230;SDS011;51813;40.666;16.602;2023-03-23T06:20:05;8.57;;;6.20;;
65230;SDS011;51813;40.666;16.602;2023-03-23T06:22:35;8.50;;;6.65;;
65230;SDS011;51813;40.666;16.602;2023-03-23T06:25:07;7.78;;;6.00;;
65230;SDS011;51813;40.666;16.602;2023-03-23T06:27:36;8.23;;;6.38;;
65230;SDS011;51813;40.666;16.602;2023-03-23T06:30:02;8.23;;;6.03;;
65230;SDS011;51813;40.666;16.602;2023-03-23T06:32:30;7.70;;;5.90;;
65230;SDS011;51813;40.666;16.602;2023-03-23T06:34:57;9.82;;;6.20;;
65230;SDS011;51813;40.666;16.602;2023-03-23T06:37:23;7.57;;;5.40;;
65230;SDS011;51813;40.666;16.602;2023-03-23T06:39:50;6.70;;;5.05;;
65230;SDS011;51813;40.666;16.602;2023-03-23T06:42:16;7.78;;;5.90;;
65230;SDS011;51813;40.666;16.602;2023-03-23T06:44:43;7.60;;;5.50;;
65230;SDS011;51813;40.666;16.602;2023-03-23T06:47:08;6.78;;;5.60;;
65230;SDS011;51813;40.666;16.602;2023-03-23T06:49:34;7.45;;;5.25;;
65230;SDS011;51813;40.666;16.602;2023-03-23T06:52:00;7.75;;;5.93;;
65230;SDS011;51813;40.666;16.602;2023-03-23T06:54:28;7.35;;;5.30;;
65230;SDS011;51813;40.666;16.602;2023-03-23T06:56:54;7.00;;;5.28;;
65230;SDS011;51813;40.666;16.602;2023-03-23T06:59:20;8.25;;;5.95;;
65230;SDS011;51813;40.666;16.602;2023-03-23T07:01:45;7.68;;;5.32;;
65230;SDS011;51813;40.666;16.602;2023-03-23T07:04:11;6.88;;;4.78;;
65230;SDS011;51813;40.666;16.602;2023-03-23T07:06:38;6.28;;;5.28;;
65230;SDS011;51813;40.666;16.602;2023-03-23T07:09:04;7.35;;;5.20;;
65230;SDS011;51813;40.666;16.602;2023-03-23T07:11:29;8.35;;;5.65;;
65230;SDS011;51813;40.666;16.602;2023-03-23T07:13:55;9.13;;;5.80;;
65230;SDS011;51813;40.666;16.602;2023-03-23T07:16:21;8.38;;;6.03;;
65230;SDS011;51813;40.666;16.602;2023-03-23T07:18:46;7.80;;;5.55;;
65230;SDS011;51813;40.666;16.602;2023-03-23T07:21:12;7.45;;;5.72;;
65230;SDS011;51813;40.666;16.602;2023-03-23T07:23:38;7.65;;;5.80;;
65230;SDS011;51813;40.666;16.602;2023-03-23T07:26:04;8.38;;;5.28;;
65230;SDS011;51813;40.666;16.602;2023-03-23T07:28:30;6.88;;;4.88;;
65230;SDS011;51813;40.666;16.602;2023-03-23T07:30:56;6.43;;;4.85;;
65230;SDS011;51813;40.666;16.602;2023-03-23T07:33:22;8.77;;;5.82;;
65230;SDS011;51813;40.666;16.602;2023-03-23T07:35:47;7.32;;;5.18;;
65230;SDS011;51813;40.666;16.602;2023-03-23T07:38:13;6.38;;;5.05;;
65230;SDS011;51813;40.666;16.602;2023-03-23T07:40:39;7.28;;;5.05;;
65230;SDS011;51813;40.666;16.602;2023-03-23T07:43:06;7.78;;;5.47;;
65230;SDS011;51813;40.666;16.602;2023-03-23T07:45:32;8.68;;;5.72;;
65230;SDS011;51813;40.666;16.602;2023-03-23T07:47:58;8.35;;;6.57;;
65230;SDS011;51813;40.666;16.602;2023-03-23T07:50:24;9.15;;;6.70;;
65230;SDS011;51813;40.666;16.602;2023-03-23T07:52:53;9.02;;;6.53;;
65230;SDS011;51813;40.666;16.602;2023-03-23T07:55:20;9.05;;;5.90;;
65230;SDS011;51813;40.666;16.602;2023-03-23T07:57:47;10.05;;;6.22;;
65230;SDS011;51813;40.666;16.602;2023-03-23T08:00:17;7.75;;;5.70;;
65230;SDS011;51813;40.666;16.602;2023-03-23T08:02:47;8.10;;;5.85;;
65230;SDS011;51813;40.666;16.602;2023-03-23T08:05:15;8.52;;;6.25;;
65230;SDS011;51813;40.666;16.602;2023-03-23T08:07:42;6.80;;;5.53;;
65230;SDS011;51813;40.666;16.602;2023-03-23T08:10:10;8.02;;;5.85;;
65230;SDS011;51813;40.666;16.602;2023-03-23T08:12:37;7.35;;;5.63;;
65230;SDS011;51813;40.666;16.602;2023-03-23T08:15:04;6.28;;;4.90;;
65230;SDS011;51813;40.666;16.602;2023-03-23T08:17:32;7.38;;;5.40;;
65230;SDS011;51813;40.666;16.602;2023-03-23T08:19:59;7.78;;;5.45;;
65230;SDS011;51813;40.666;16.602;2023-03-23T08:22:25;9.15;;;5.35;;
65230;SDS011;51813;40.666;16.602;2023-03-23T08:24:51;8.25;;;5.10;;
65230;SDS011;51813;40.666;16.602;2023-03-23T08:27:17;8.18;;;5.18;;
65230;SDS011;51813;40.666;16.602;2023-03-23T08:29:46;7.85;;;5.55;;
65230;SDS011;51813;40.666;16.602;2023-03-23T08:32:13;6.47;;;4.85;;
65230;SDS011;51813;40.666;16.602;2023-03-23T08:34:39;6.53;;;4.72;;
65230;SDS011;51813;40.666;16.602;2023-03-23T08:37:07;7.00;;;5.15;;
65230;SDS011;51813;40.666;16.602;2023-03-23T08:39:34;6.60;;;4.40;;
65230;SDS011;51813;40.666;16.602;2023-03-23T08:41:59;7.20;;;4.82;;
65230;SDS011;51813;40.666;16.602;2023-03-23T08:44:25;8.27;;;4.90;;
65230;SDS011;51813;40.666;16.602;2023-03-23T08:46:51;6.95;;;4.95;;
65230;SDS011;51813;40.666;16.602;2023-03-23T08:49:21;6.72;;;4.57;;
65230;SDS011;51813;40.666;16.602;2023-03-23T08:51:48;7.50;;;4.80;;
65230;SDS011;51813;40.666;16.602;2023-03-23T08:54:14;6.95;;;4.72;;
65230;SDS011;51813;40.666;16.602;2023-03-23T08:56:40;8.45;;;5.15;;
65230;SDS011;51813;40.666;16.602;2023-03-23T08:59:07;7.20;;;4.50;;
65230;SDS011;51813;40.666;16.602;2023-03-23T09:01:32;9.35;;;5.32;;
65230;SDS011;51813;40.666;16.602;2023-03-23T09:03:58;9.23;;;4.90;;
65230;SDS011;51813;40.666;16.602;2023-03-23T09:06:24;6.88;;;4.80;;
65230;SDS011;51813;40.666;16.602;2023-03-23T09:08:50;5.45;;;4.10;;
65230;SDS011;51813;40.666;16.602;2023-03-23T09:11:16;6.68;;;4.43;;
65230;SDS011;51813;40.666;16.602;2023-03-23T09:13:42;8.27;;;4.70;;
65230;SDS011;51813;40.666;16.602;2023-03-23T09:16:08;7.10;;;4.57;;
65230;SDS011;51813;40.666;16.602;2023-03-23T09:18:34;5.93;;;3.95;;
65230;SDS011;51813;40.666;16.602;2023-03-23T09:21:01;8.23;;;4.32;;
65230;SDS011;51813;40.666;16.602;2023-03-23T09:23:28;5.03;;;3.70;;
65230;SDS011;51813;40.666;16.602;2023-03-23T09:25:55;6.38;;;4.18;;
65230;SDS011;51813;40.666;16.602;2023-03-23T09:28:20;5.45;;;4.20;;
65230;SDS011;51813;40.666;16.602;2023-03-23T09:30:46;7.03;;;4.00;;
65230;SDS011;51813;40.666;16.602;2023-03-23T09:33:13;7.88;;;3.95;;
65230;SDS011;51813;40.666;16.602;2023-03-23T09:35:39;6.55;;;3.95;;
65230;SDS011;51813;40.666;16.602;2023-03-23T09:38:07;5.15;;;3.70;;
65230;SDS011;51813;40.666;16.602;2023-03-23T09:49:00;5.50;;;3.40;;
65230;SDS011;51813;40.666;16.602;2023-03-23T09:51:42;5.10;;;3.60;;
65230;SDS011;51813;40.666;16.602;2023-03-23T09:54:22;5.18;;;3.45;;
65230;SDS011;51813;40.666;16.602;2023-03-23T09:57:02;5.35;;;3.70;;
65230;SDS011;51813;40.666;16.602;2023-03-23T10:02:11;4.20;;;3.17;;
65230;SDS011;51813;40.666;16.602;2023-03-23T10:04:46;5.85;;;3.33;;
65230;SDS011;51813;40.666;16.602;2023-03-23T10:07:14;4.43;;;2.95;;
65230;SDS011;51813;40.666;16.602;2023-03-23T10:09:43;4.43;;;3.20;;
65230;SDS011;51813;40.666;16.602;2023-03-23T10:12:21;11.77;;;7.10;;
65230;SDS011;51813;40.666;16.602;2023-03-23T10:20:45;4.88;;;3.08;;
65230;SDS011;51813;40.666;16.602;2023-03-23T10:25:52;5.25;;;3.33;;
65230;SDS011;51813;40.666;16.602;2023-03-23T10:28:37;4.55;;;2.92;;
65230;SDS011;51813;40.666;16.602;2023-03-23T10:31:08;4.13;;;2.83;;
65230;SDS011;51813;40.666;16.602;2023-03-23T10:33:40;4.30;;;2.90;;
65230;SDS011;51813;40.666;16.602;2023-03-23T10:39:26;4.30;;;2.97;;
65230;SDS011;51813;40.666;16.602;2023-03-23T10:41:56;4.35;;;2.92;;
65230;SDS011;51813;40.666;16.602;2023-03-23T10:49:38;6.28;;;3.63;;
65230;SDS011;51813;40.666;16.602;2023-03-23T10:52:27;3.70;;;2.55;;
65230;SDS011;51813;40.666;16.602;2023-03-23T10:54:56;3.58;;;2.67;;
65230;SDS011;51813;40.666;16.602;2023-03-23T10:57:29;5.47;;;2.95;;
65230;SDS011;51813;40.666;16.602;2023-03-23T11:00:05;4.00;;;2.55;;
65230;SDS011;51813;40.666;16.602;2023-03-23T11:05:24;3.83;;;2.70;;
65230;SDS011;51813;40.666;16.602;2023-03-23T11:07:57;3.95;;;2.47;;
65230;SDS011;51813;40.666;16.602;2023-03-23T11:10:36;3.63;;;2.28;;
65230;SDS011;51813;40.666;16.602;2023-03-23T11:13:04;3.75;;;2.70;;
65230;SDS011;51813;40.666;16.602;2023-03-23T11:15:39;5.22;;;2.35;;
65230;SDS011;51813;40.666;16.602;2023-03-23T11:18:09;4.38;;;2.50;;
65230;SDS011;51813;40.666;16.602;2023-03-23T11:20:39;4.35;;;2.60;;
65230;SDS011;51813;40.666;16.602;2023-03-23T11:23:17;3.85;;;2.55;;
65230;SDS011;51813;40.666;16.602;2023-03-23T11:25:58;4.47;;;2.45;;
65230;SDS011;51813;40.666;16.602;2023-03-23T11:28:35;4.43;;;2.53;;
65230;SDS011;51813;40.666;16.602;2023-03-23T11:31:06;3.85;;;2.72;;
65230;SDS011;51813;40.666;16.602;2023-03-23T11:33:37;4.20;;;2.50;;
65230;SDS011;51813;40.666;16.602;2023-03-23T11:36:34;3.63;;;2.50;;
65230;SDS011;51813;40.666;16.602;2023-03-23T11:39:19;5.82;;;2.60;;
65230;SDS011;51813;40.666;16.602;2023-03-23T11:41:46;3.63;;;2.42;;
65230;SDS011;51813;40.666;16.602;2023-03-23T11:44:13;4.53;;;2.60;;
65230;SDS011;51813;40.666;16.602;2023-03-23T11:46:44;3.70;;;2.28;;
65230;SDS011;51813;40.666;16.602;2023-03-23T11:55:27;4.97;;;2.38;;
65230;SDS011;51813;40.666;16.602;2023-03-23T11:58:07;3.50;;;2.40;;
65230;SDS011;51813;40.666;16.602;2023-03-23T12:00:38;3.55;;;2.60;;
65230;SDS011;51813;40.666;16.602;2023-03-23T12:06:54;2.65;;;2.08;;
65230;SDS011;51813;40.666;16.602;2023-03-23T12:16:58;3.33;;;2.30;;
65230;SDS011;51813;40.666;16.602;2023-03-23T12:19:42;4.15;;;2.20;;
65230;SDS011;51813;40.666;16.602;2023-03-23T12:30:11;3.95;;;2.60;;
65230;SDS011;51813;40.666;16.602;2023-03-23T12:38:29;3.25;;;2.30;;
65230;SDS011;51813;40.666;16.602;2023-03-23T12:41:25;3.67;;;2.30;;
65230;SDS011;51813;40.666;16.602;2023-03-23T12:44:01;4.65;;;2.10;;
65230;SDS011;51813;40.666;16.602;2023-03-23T12:51:37;4.22;;;2.35;;
65230;SDS011;51813;40.666;16.602;2023-03-23T12:57:03;4.05;;;2.30;;
65230;SDS011;51813;40.666;16.602;2023-03-23T13:02:25;3.88;;;2.22;;
65230;SDS011;51813;40.666;16.602;2023-03-23T13:07:49;3.03;;;1.85;;
65230;SDS011;51813;40.666;16.602;2023-03-23T13:10:47;3.22;;;2.35;;
65230;SDS011;51813;40.666;16.602;2023-03-23T13:13:25;3.10;;;2.30;;
65230;SDS011;51813;40.666;16.602;2023-03-23T13:21:20;3.55;;;2.13;;
65230;SDS011;51813;40.666;16.602;2023-03-23T13:23:53;3.17;;;2.03;;
65230;SDS011;51813;40.666;16.602;2023-03-23T13:26:22;3.83;;;2.20;;
65230;SDS011;51813;40.666;16.602;2023-03-23T13:34:19;3.00;;;2.10;;
65230;SDS011;51813;40.666;16.602;2023-03-23T13:39:25;3.45;;;2.38;;
65230;SDS011;51813;40.666;16.602;2023-03-23T13:49:58;3.42;;;2.03;;
65230;SDS011;51813;40.666;16.602;2023-03-23T13:57:51;2.88;;;2.05;;
65230;SDS011;51813;40.666;16.602;2023-03-23T14:05:37;3.70;;;2.40;;
65230;SDS011;51813;40.666;16.602;2023-03-23T14:13:58;3.47;;;2.13;;
65230;SDS011;51813;40.666;16.602;2023-03-23T14:16:48;3.47;;;2.20;;
65230;SDS011;51813;40.666;16.602;2023-03-23T14:19:27;7.38;;;2.70;;
65230;SDS011;51813;40.666;16.602;2023-03-23T14:21:57;3.30;;;2.27;;
65230;SDS011;51813;40.666;16.602;2023-03-23T14:27:09;4.68;;;3.17;;
65230;SDS011;51813;40.666;16.602;2023-03-23T14:29:38;4.13;;;2.65;;
65230;SDS011;51813;40.666;16.602;2023-03-23T14:32:05;4.10;;;2.80;;
65230;SDS011;51813;40.666;16.602;2023-03-23T14:34:43;5.38;;;3.38;;
65230;SDS011;51813;40.666;16.602;2023-03-23T14:37:12;3.95;;;2.47;;
65230;SDS011;51813;40.666;16.602;2023-03-23T14:39:40;3.50;;;2.60;;
65230;SDS011;51813;40.666;16.602;2023-03-23T14:42:11;4.55;;;2.80;;
65230;SDS011;51813;40.666;16.602;2023-03-23T14:44:43;4.28;;;2.60;;
65230;SDS011;51813;40.666;16.602;2023-03-23T14:47:19;3.92;;;2.40;;
65230;SDS011;51813;40.666;16.602;2023-03-23T14:49:57;4.78;;;3.00;;
65230;SDS011;51813;40.666;16.602;2023-03-23T14:52:28;4.45;;;2.65;;
65230;SDS011;51813;40.666;16.602;2023-03-23T14:55:10;3.40;;;2.35;;
65230;SDS011;51813;40.666;16.602;2023-03-23T14:57:40;3.50;;;2.30;;
65230;SDS011;51813;40.666;16.602;2023-03-23T15:02:40;3.53;;;2.40;;
65230;SDS011;51813;40.666;16.602;2023-03-23T15:07:43;4.38;;;2.95;;
65230;SDS011;51813;40.666;16.602;2023-03-23T15:10:18;4.32;;;2.50;;
65230;SDS011;51813;40.666;16.602;2023-03-23T15:12:47;4.32;;;2.42;;
65230;SDS011;51813;40.666;16.602;2023-03-23T15:17:56;4.43;;;2.70;;
65230;SDS011;51813;40.666;16.602;2023-03-23T15:20:24;5.25;;;2.80;;
65230;SDS011;51813;40.666;16.602;2023-03-23T15:22:54;5.97;;;2.90;;
65230;SDS011;51813;40.666;16.602;2023-03-23T15:25:21;4.65;;;3.17;;
65230;SDS011;51813;40.666;16.602;2023-03-23T15:28:06;6.43;;;3.22;;
65230;SDS011;51813;40.666;16.602;2023-03-23T15:30:46;5.60;;;3.35;;
65230;SDS011;51813;40.666;16.602;2023-03-23T15:33:13;4.07;;;3.00;;
65230;SDS011;51813;40.666;16.602;2023-03-23T15:35:40;6.45;;;3.67;;
65230;SDS011;51813;40.666;16.602;2023-03-23T15:38:30;5.82;;;3.28;;
65230;SDS011;51813;40.666;16.602;2023-03-23T15:40:59;6.10;;;3.78;;
65230;SDS011;51813;40.666;16.602;2023-03-23T15:43:31;12.95;;;9.55;;
65230;SDS011;51813;40.666;16.602;2023-03-23T15:51:12;5.93;;;4.05;;
65230;SDS011;51813;40.666;16.602;2023-03-23T15:53:40;5.45;;;3.83;;
65230;SDS011;51813;40.666;16.602;2023-03-23T15:56:07;6.43;;;4.38;;
65230;SDS011;51813;40.666;16.602;2023-03-23T15:58:36;6.18;;;4.10;;
65230;SDS011;51813;40.666;16.602;2023-03-23T16:01:26;5.80;;;4.25;;
65230;SDS011;51813;40.666;16.602;2023-03-23T16:06:20;6.10;;;4.10;;
65230;SDS011;51813;40.666;16.602;2023-03-23T16:08:48;4.95;;;3.80;;
65230;SDS011;51813;40.666;16.602;2023-03-23T16:11:15;5.28;;;3.97;;
65230;SDS011;51813;40.666;16.602;2023-03-23T16:13:42;4.95;;;3.60;;
65230;SDS011;51813;40.666;16.602;2023-03-23T16:16:15;5.40;;;4.00;;
65230;SDS011;51813;40.666;16.602;2023-03-23T16:18:43;5.80;;;3.83;;
65230;SDS011;51813;40.666;16.602;2023-03-23T16:21:09;8.07;;;3.85;;
65230;SDS011;51813;40.666;16.602;2023-03-23T16:23:35;4.72;;;3.67;;
65230;SDS011;51813;40.666;16.602;2023-03-23T16:26:00;7.13;;;4.30;;
65230;SDS011;51813;40.666;16.602;2023-03-23T16:28:26;5.50;;;3.53;;
65230;SDS011;51813;40.666;16.602;2023-03-23T16:30:52;5.22;;;3.80;;
65230;SDS011;51813;40.666;16.602;2023-03-23T16:33:18;5.80;;;3.95;;
65230;SDS011;51813;40.666;16.602;2023-03-23T16:35:43;6.18;;;4.05;;
65230;SDS011;51813;40.666;16.602;2023-03-23T16:38:11;7.25;;;4.00;;
65230;SDS011;51813;40.666;16.602;2023-03-23T16:40:40;5.82;;;3.97;;
65230;SDS011;51813;40.666;16.602;2023-03-23T16:43:06;5.60;;;4.25;;
65230;SDS011;51813;40.666;16.602;2023-03-23T16:45:32;6.75;;;4.20;;
65230;SDS011;51813;40.666;16.602;2023-03-23T16:47:58;4.95;;;3.78;;
65230;SDS011;51813;40.666;16.602;2023-03-23T16:50:25;6.20;;;3.95;;
65230;SDS011;51813;40.666;16.602;2023-03-23T16:52:53;6.43;;;3.97;;
65230;SDS011;51813;40.666;16.602;2023-03-23T16:55:19;6.15;;;4.15;;
65230;SDS011;51813;40.666;16.602;2023-03-23T16:57:45;6.85;;;3.65;;
65230;SDS011;51813;40.666;16.602;2023-03-23T17:00:12;6.28;;;3.90;;
65230;SDS011;51813;40.666;16.602;2023-03-23T17:02:41;6.38;;;3.90;;
65230;SDS011;51813;40.666;16.602;2023-03-23T17:05:08;7.00;;;4.05;;
65230;SDS011;51813;40.666;16.602;2023-03-23T17:07:35;6.22;;;4.05;;
65230;SDS011;51813;40.666;16.602;2023-03-23T17:10:05;6.85;;;3.75;;
65230;SDS011;51813;40.666;16.602;2023-03-23T17:12:33;5.00;;;3.88;;
65230;SDS011;51813;40.666;16.602;2023-03-23T17:14:59;5.60;;;3.70;;
65230;SDS011;51813;40.666;16.602;2023-03-23T17:17:25;4.38;;;3.50;;